sensor_id;sensor_type;location;lat;lon;timestamp;temperature;humidity
14682;DHT22;7429;52.498;13.480;2022-10-16T00:02:13;13.80;99.90
14682;DHT22;7429;52.498;13.480;2022-10-16T00:05:19;13.80;99.90
14682;DHT22;7429;52.498;13.480;2022-10-16T00:08:24;13.80;99.90
14682;DHT22;7429;52.498;13.480;2022-10-16T00:11:31;13.90;99.90
14682;DHT22;7429;52.498;13.480;2022-10-16T00:14:35;13.90;99.90
14682;DHT22;7429;52.498;13.480;2022-10-16T00:17:38;13.90;99.90
14682;DHT22;7429;52.498;13.480;2022-10-16T00:20:41;14.10;99.90
14682;DHT22;7429;52.498;13.480;2022-10-16T00:24:05;14.10;99.90
14682;DHT22;7429;52.498;13.480;2022-10-16T00:27:11;14.10;99.90
14682;DHT22;7429;52.498;13.480;2022-10-16T00:30:17;14.10;99.90
14682;DHT22;7429;52.498;13.480;2022-10-16T00:33:20;14.10;99.90
14682;DHT22;7429;52.498;13.480;2022-10-16T00:36:25;14.10;99.90
14682;DHT22;7429;52.498;13.480;2022-10-16T00:39:28;14.00;99.90
14682;DHT22;7429;52.498;13.480;2022-10-16T00:42:33;14.20;99.90
14682;DHT22;7429;52.498;13.480;2022-10-16T00:45:36;14.20;99.90
14682;DHT22;7429;52.498;13.480;2022-10-16T00:48:39;14.20;99.90
14682;DHT22;7429;52.498;13.480;2022-10-16T00:51:45;14.30;99.90
14682;DHT22;7429;52.498;13.480;2022-10-16T00:54:49;14.30;99.90
14682;DHT22;7429;52.498;13.480;2022-10-16T00:57:54;14.40;99.90
14682;DHT22;7429;52.498;13.480;2022-10-16T01:00:58;14.40;99.90
14682;DHT22;7429;52.498;13.480;2022-10-16T01:04:01;14.40;99.90
14682;DHT22;7429;52.498;13.480;2022-10-16T01:07:09;14.50;99.90
14682;DHT22;7429;52.498;13.480;2022-10-16T01:10:24;14.50;99.90
14682;DHT22;7429;52.498;13.480;2022-10-16T01:13:35;14.50;99.90
14682;DHT22;7429;52.498;13.480;2022-10-16T01:16:45;14.40;99.90
14682;DHT22;7429;52.498;13.480;2022-10-16T01:20:05;14.50;99.90
14682;DHT22;7429;52.498;13.480;2022-10-16T01:23:24;14.50;99.90
14682;DHT22;7429;52.498;13.480;2022-10-16T01:26:37;14.40;99.90
14682;DHT22;7429;52.498;13.480;2022-10-16T01:30:07;14.40;99.90
14682;DHT22;7429;52.498;13.480;2022-10-16T01:33:18;14.30;99.90
14682;DHT22;7429;52.498;13.480;2022-10-16T01:36:26;14.30;99.90
14682;DHT22;7429;52.498;13.480;2022-10-16T01:39:35;14.20;99.90
14682;DHT22;7429;52.498;13.480;2022-10-16T01:42:46;14.20;99.90
14682;DHT22;7429;52.498;13.480;2022-10-16T01:45:52;14.10;99.90
14682;DHT22;7429;52.498;13.480;2022-10-16T01:48:55;14.10;99.90
14682;DHT22;7429;52.498;13.480;2022-10-16T01:52:02;14.10;99.90
14682;DHT22;7429;52.498;13.480;2022-10-16T01:55:10;14.10;99.90
14682;DHT22;7429;52.498;13.480;2022-10-16T01:58:21;14.10;99.90
14682;DHT22;7429;52.498;13.480;2022-10-16T02:01:27;14.10;99.90
14682;DHT22;7429;52.498;13.480;2022-10-16T02:04:34;14.10;99.90
14682;DHT22;7429;52.498;13.480;2022-10-16T02:07:39;14.10;99.90
14682;DHT22;7429;52.498;13.480;2022-10-16T02:10:45;14.10;99.90
14682;DHT22;7429;52.498;13.480;2022-10-16T02:13:54;14.20;99.90
14682;DHT22;7429;52.498;13.480;2022-10-16T02:17:01;14.20;99.90
14682;DHT22;7429;52.498;13.480;2022-10-16T02:20:05;14.30;99.90
14682;DHT22;7429;52.498;13.480;2022-10-16T02:23:12;14.30;99.90
14682;DHT22;7429;52.498;13.480;2022-10-16T02:26:26;14.40;99.90
14682;DHT22;7429;52.498;13.480;2022-10-16T02:29:35;14.40;99.90
14682;DHT22;7429;52.498;13.480;2022-10-16T02:32:43;14.50;99.90
14682;DHT22;7429;52.498;13.480;2022-10-16T02:35:49;14.50;99.90
14682;DHT22;7429;52.498;13.480;2022-10-16T02:38:53;14.60;99.90
14682;DHT22;7429;52.498;13.480;2022-10-16T02:41:57;14.60;99.90
14682;DHT22;7429;52.498;13.480;2022-10-16T02:45:01;14.70;99.90
14682;DHT22;7429;52.498;13.480;2022-10-16T02:48:05;14.70;99.90
14682;DHT22;7429;52.498;13.480;2022-10-16T02:51:08;14.80;99.90
14682;DHT22;7429;52.498;13.480;2022-10-16T02:54:11;14.80;99.90
14682;DHT22;7429;52.498;13.480;2022-10-16T02:57:14;14.80;99.90
14682;DHT22;7429;52.498;13.480;2022-10-16T03:00:20;14.70;99.90
14682;DHT22;7429;52.498;13.480;2022-10-16T03:03:23;14.80;99.90
14682;DHT22;7429;52.498;13.480;2022-10-16T03:06:26;14.90;99.90
14682;DHT22;7429;52.498;13.480;2022-10-16T03:09:29;14.90;99.90
14682;DHT22;7429;52.498;13.480;2022-10-16T03:12:32;14.90;99.90
14682;DHT22;7429;52.498;13.480;2022-10-16T03:15:36;14.90;99.90
14682;DHT22;7429;52.498;13.480;2022-10-16T03:18:39;14.80;99.90
14682;DHT22;7429;52.498;13.480;2022-10-16T03:21:42;14.80;99.90
14682;DHT22;7429;52.498;13.480;2022-10-16T03:24:45;14.70;99.90
14682;DHT22;7429;52.498;13.480;2022-10-16T03:27:48;14.60;99.90
14682;DHT22;7429;52.498;13.480;2022-10-16T03:30:53;14.60;99.90
14682;DHT22;7429;52.498;13.480;2022-10-16T03:33:56;14.50;99.90
14682;DHT22;7429;52.498;13.480;2022-10-16T03:36:59;14.50;99.90
14682;DHT22;7429;52.498;13.480;2022-10-16T03:40:03;14.50;99.90
14682;DHT22;7429;52.498;13.480;2022-10-16T03:43:06;14.50;99.90
14682;DHT22;7429;52.498;13.480;2022-10-16T03:46:11;14.40;99.90
14682;DHT22;7429;52.498;13.480;2022-10-16T03:49:14;14.40;99.90
14682;DHT22;7429;52.498;13.480;2022-10-16T03:52:17;14.30;99.90
14682;DHT22;7429;52.498;13.480;2022-10-16T03:55:21;14.30;99.90
14682;DHT22;7429;52.498;13.480;2022-10-16T03:58:24;14.30;99.90
14682;DHT22;7429;52.498;13.480;2022-10-16T04:01:29;14.20;99.90
14682;DHT22;7429;52.498;13.480;2022-10-16T04:04:32;14.20;99.90
14682;DHT22;7429;52.498;13.480;2022-10-16T04:07:35;14.20;99.90
14682;DHT22;7429;52.498;13.480;2022-10-16T04:10:38;14.30;99.90
14682;DHT22;7429;52.498;13.480;2022-10-16T04:13:42;14.30;99.90
14682;DHT22;7429;52.498;13.480;2022-10-16T04:16:47;14.30;99.90
14682;DHT22;7429;52.498;13.480;2022-10-16T04:19:50;14.30;99.90
14682;DHT22;7429;52.498;13.480;2022-10-16T04:22:53;14.30;99.90
14682;DHT22;7429;52.498;13.480;2022-10-16T04:25:56;14.30;99.90
14682;DHT22;7429;52.498;13.480;2022-10-16T04:28:59;14.30;99.90
14682;DHT22;7429;52.498;13.480;2022-10-16T04:32:04;14.30;99.90
14682;DHT22;7429;52.498;13.480;2022-10-16T04:35:08;14.20;99.90
14682;DHT22;7429;52.498;13.480;2022-10-16T04:38:11;14.20;99.90
14682;DHT22;7429;52.498;13.480;2022-10-16T04:41:14;14.20;99.90
14682;DHT22;7429;52.498;13.480;2022-10-16T04:44:17;14.20;99.90
14682;DHT22;7429;52.498;13.480;2022-10-16T04:47:22;14.20;99.90
14682;DHT22;7429;52.498;13.480;2022-10-16T04:50:26;14.20;99.90
14682;DHT22;7429;52.498;13.480;2022-10-16T04:53:39;14.20;99.90
14682;DHT22;7429;52.498;13.480;2022-10-16T04:56:42;14.20;99.90
14682;DHT22;7429;52.498;13.480;2022-10-16T04:59:49;14.10;99.90
14682;DHT22;7429;52.498;13.480;2022-10-16T05:02:54;14.10;99.90
14682;DHT22;7429;52.498;13.480;2022-10-16T05:05:59;14.10;99.90
14682;DHT22;7429;52.498;13.480;2022-10-16T05:09:02;14.10;99.90
14682;DHT22;7429;52.498;13.480;2022-10-16T05:12:14;14.00;99.90
14682;DHT22;7429;52.498;13.480;2022-10-16T05:15:18;14.00;99.90
14682;DHT22;7429;52.498;13.480;2022-10-16T05:18:24;13.90;99.90
14682;DHT22;7429;52.498;13.480;2022-10-16T05:21:27;13.90;99.90
14682;DHT22;7429;52.498;13.480;2022-10-16T05:24:30;13.80;99.90
14682;DHT22;7429;52.498;13.480;2022-10-16T05:27:33;13.80;99.90
14682;DHT22;7429;52.498;13.480;2022-10-16T05:30:37;13.80;99.90
14682;DHT22;7429;52.498;13.480;2022-10-16T05:33:42;13.80;99.90
14682;DHT22;7429;52.498;13.480;2022-10-16T05:36:48;13.80;99.90
14682;DHT22;7429;52.498;13.480;2022-10-16T05:39:51;13.80;99.90
14682;DHT22;7429;52.498;13.480;2022-10-16T05:42:55;13.90;99.90
14682;DHT22;7429;52.498;13.480;2022-10-16T05:46:02;13.90;99.90
14682;DHT22;7429;52.498;13.480;2022-10-16T05:49:07;13.90;99.90
14682;DHT22;7429;52.498;13.480;2022-10-16T05:52:11;13.90;99.90
14682;DHT22;7429;52.498;13.480;2022-10-16T05:55:14;13.90;99.90
14682;DHT22;7429;52.498;13.480;2022-10-16T05:58:20;13.90;99.90
14682;DHT22;7429;52.498;13.480;2022-10-16T06:01:23;14.00;99.90
14682;DHT22;7429;52.498;13.480;2022-10-16T06:04:28;14.00;99.90
14682;DHT22;7429;52.498;13.480;2022-10-16T06:07:34;14.00;99.90
14682;DHT22;7429;52.498;13.480;2022-10-16T06:10:40;14.00;99.90
14682;DHT22;7429;52.498;13.480;2022-10-16T06:13:43;14.00;99.90
14682;DHT22;7429;52.498;13.480;2022-10-16T06:16:47;14.00;99.90
14682;DHT22;7429;52.498;13.480;2022-10-16T06:19:52;14.00;99.90
14682;DHT22;7429;52.498;13.480;2022-10-16T06:23:09;14.00;99.90
14682;DHT22;7429;52.498;13.480;2022-10-16T06:26:18;14.10;99.90
14682;DHT22;7429;52.498;13.480;2022-10-16T06:29:22;14.20;99.90
14682;DHT22;7429;52.498;13.480;2022-10-16T06:32:25;14.20;99.90
14682;DHT22;7429;52.498;13.480;2022-10-16T06:35:31;14.30;99.90
14682;DHT22;7429;52.498;13.480;2022-10-16T06:38:37;14.30;99.90
14682;DHT22;7429;52.498;13.480;2022-10-16T06:42:16;14.40;99.90
14682;DHT22;7429;52.498;13.480;2022-10-16T06:46:03;14.40;99.90
14682;DHT22;7429;52.498;13.480;2022-10-16T06:49:10;14.50;99.90
14682;DHT22;7429;52.498;13.480;2022-10-16T06:52:14;14.60;99.90
14682;DHT22;7429;52.498;13.480;2022-10-16T06:55:27;14.60;99.90
14682;DHT22;7429;52.498;13.480;2022-10-16T06:58:30;14.60;99.90
14682;DHT22;7429;52.498;13.480;2022-10-16T07:01:34;14.70;99.90
14682;DHT22;7429;52.498;13.480;2022-10-16T07:04:37;14.70;99.90
14682;DHT22;7429;52.498;13.480;2022-10-16T07:07:48;14.70;99.90
14682;DHT22;7429;52.498;13.480;2022-10-16T07:11:00;14.80;99.90
14682;DHT22;7429;52.498;13.480;2022-10-16T07:14:14;14.90;99.90
14682;DHT22;7429;52.498;13.480;2022-10-16T07:17:23;15.00;99.90
14682;DHT22;7429;52.498;13.480;2022-10-16T07:20:27;15.10;99.90
14682;DHT22;7429;52.498;13.480;2022-10-16T07:23:32;15.20;99.90
14682;DHT22;7429;52.498;13.480;2022-10-16T07:26:37;15.30;99.90
14682;DHT22;7429;52.498;13.480;2022-10-16T07:29:41;15.40;99.90
14682;DHT22;7429;52.498;13.480;2022-10-16T07:32:44;15.50;99.90
14682;DHT22;7429;52.498;13.480;2022-10-16T07:35:48;15.50;99.90
14682;DHT22;7429;52.498;13.480;2022-10-16T07:38:53;15.60;99.90
14682;DHT22;7429;52.498;13.480;2022-10-16T07:42:00;15.70;99.90
14682;DHT22;7429;52.498;13.480;2022-10-16T07:45:05;15.80;99.90
14682;DHT22;7429;52.498;13.480;2022-10-16T07:48:09;15.80;99.90
14682;DHT22;7429;52.498;13.480;2022-10-16T07:51:14;15.80;99.90
14682;DHT22;7429;52.498;13.480;2022-10-16T07:54:19;15.90;99.90
14682;DHT22;7429;52.498;13.480;2022-10-16T07:57:22;16.00;99.90
14682;DHT22;7429;52.498;13.480;2022-10-16T08:00:28;16.10;99.90
14682;DHT22;7429;52.498;13.480;2022-10-16T08:03:31;16.20;99.90
14682;DHT22;7429;52.498;13.480;2022-10-16T08:06:39;16.20;99.90
14682;DHT22;7429;52.498;13.480;2022-10-16T08:09:49;16.20;99.90
14682;DHT22;7429;52.498;13.480;2022-10-16T08:12:53;16.30;99.90
14682;DHT22;7429;52.498;13.480;2022-10-16T08:16:01;16.40;99.90
14682;DHT22;7429;52.498;13.480;2022-10-16T08:19:08;16.40;99.90
14682;DHT22;7429;52.498;13.480;2022-10-16T08:22:15;16.50;99.90
14682;DHT22;7429;52.498;13.480;2022-10-16T08:25:20;16.60;99.90
14682;DHT22;7429;52.498;13.480;2022-10-16T08:28:25;16.70;99.90
14682;DHT22;7429;52.498;13.480;2022-10-16T08:31:28;16.70;99.90
14682;DHT22;7429;52.498;13.480;2022-10-16T08:34:31;16.80;99.90
14682;DHT22;7429;52.498;13.480;2022-10-16T08:37:35;16.90;99.90
14682;DHT22;7429;52.498;13.480;2022-10-16T08:40:47;16.90;99.90
14682;DHT22;7429;52.498;13.480;2022-10-16T08:44:14;17.00;99.90
14682;DHT22;7429;52.498;13.480;2022-10-16T08:47:42;17.00;99.90
14682;DHT22;7429;52.498;13.480;2022-10-16T08:51:02;17.10;99.90
14682;DHT22;7429;52.498;13.480;2022-10-16T08:54:21;17.10;99.90
14682;DHT22;7429;52.498;13.480;2022-10-16T08:57:32;17.10;99.90
14682;DHT22;7429;52.498;13.480;2022-10-16T09:00:35;17.20;99.90
14682;DHT22;7429;52.498;13.480;2022-10-16T09:03:52;17.20;99.90
14682;DHT22;7429;52.498;13.480;2022-10-16T09:07:06;17.20;99.90
14682;DHT22;7429;52.498;13.480;2022-10-16T09:10:26;17.30;99.90
14682;DHT22;7429;52.498;13.480;2022-10-16T09:13:43;17.20;99.90
14682;DHT22;7429;52.498;13.480;2022-10-16T09:16:56;17.40;99.90
14682;DHT22;7429;52.498;13.480;2022-10-16T09:20:13;17.50;99.90
14682;DHT22;7429;52.498;13.480;2022-10-16T09:23:26;17.70;99.90
14682;DHT22;7429;52.498;13.480;2022-10-16T09:26:29;17.80;99.90
14682;DHT22;7429;52.498;13.480;2022-10-16T09:29:34;17.90;99.90
14682;DHT22;7429;52.498;13.480;2022-10-16T09:32:38;17.90;99.90
14682;DHT22;7429;52.498;13.480;2022-10-16T09:35:46;18.00;99.90
14682;DHT22;7429;52.498;13.480;2022-10-16T09:39:03;18.10;99.90
14682;DHT22;7429;52.498;13.480;2022-10-16T09:42:13;18.10;99.90
14682;DHT22;7429;52.498;13.480;2022-10-16T09:45:25;18.20;99.90
14682;DHT22;7429;52.498;13.480;2022-10-16T09:48:42;18.20;99.90
14682;DHT22;7429;52.498;13.480;2022-10-16T09:52:22;18.40;99.90
14682;DHT22;7429;52.498;13.480;2022-10-16T09:55:35;18.60;99.90
14682;DHT22;7429;52.498;13.480;2022-10-16T09:58:41;18.60;99.90
14682;DHT22;7429;52.498;13.480;2022-10-16T10:01:48;18.60;99.90
14682;DHT22;7429;52.498;13.480;2022-10-16T10:04:54;18.50;99.90
14682;DHT22;7429;52.498;13.480;2022-10-16T10:07:58;18.50;99.90
14682;DHT22;7429;52.498;13.480;2022-10-16T10:11:07;18.60;99.90
14682;DHT22;7429;52.498;13.480;2022-10-16T10:14:27;18.80;99.90
14682;DHT22;7429;52.498;13.480;2022-10-16T10:17:48;18.90;99.90
14682;DHT22;7429;52.498;13.480;2022-10-16T10:20:59;19.00;99.90
14682;DHT22;7429;52.498;13.480;2022-10-16T10:24:03;19.00;99.90
14682;DHT22;7429;52.498;13.480;2022-10-16T10:27:14;19.10;99.90
14682;DHT22;7429;52.498;13.480;2022-10-16T10:30:52;19.00;99.90
14682;DHT22;7429;52.498;13.480;2022-10-16T10:35:06;19.10;99.90
14682;DHT22;7429;52.498;13.480;2022-10-16T10:38:30;19.10;99.90
14682;DHT22;7429;52.498;13.480;2022-10-16T10:42:04;19.20;99.90
14682;DHT22;7429;52.498;13.480;2022-10-16T10:45:17;19.30;99.90
14682;DHT22;7429;52.498;13.480;2022-10-16T10:48:45;19.30;99.90
14682;DHT22;7429;52.498;13.480;2022-10-16T10:52:02;19.50;99.90
14682;DHT22;7429;52.498;13.480;2022-10-16T10:55:20;19.80;99.90
14682;DHT22;7429;52.498;13.480;2022-10-16T10:58:43;19.90;99.90
14682;DHT22;7429;52.498;13.480;2022-10-16T11:01:56;20.00;99.90
14682;DHT22;7429;52.498;13.480;2022-10-16T11:05:40;20.00;99.90
14682;DHT22;7429;52.498;13.480;2022-10-16T11:08:48;20.10;99.90
14682;DHT22;7429;52.498;13.480;2022-10-16T11:11:59;20.20;99.90
14682;DHT22;7429;52.498;13.480;2022-10-16T11:15:10;20.40;99.90
14682;DHT22;7429;52.498;13.480;2022-10-16T11:18:19;20.70;99.90
14682;DHT22;7429;52.498;13.480;2022-10-16T11:21:25;20.90;99.90
14682;DHT22;7429;52.498;13.480;2022-10-16T11:24:41;20.90;99.90
14682;DHT22;7429;52.498;13.480;2022-10-16T11:27:49;20.70;99.90
14682;DHT22;7429;52.498;13.480;2022-10-16T11:30:57;20.50;99.90
14682;DHT22;7429;52.498;13.480;2022-10-16T11:34:06;20.30;99.90
14682;DHT22;7429;52.498;13.480;2022-10-16T11:37:17;20.10;99.90
14682;DHT22;7429;52.498;13.480;2022-10-16T11:40:26;20.00;99.90
14682;DHT22;7429;52.498;13.480;2022-10-16T11:43:34;20.00;99.90
14682;DHT22;7429;52.498;13.480;2022-10-16T11:46:42;20.20;99.90
14682;DHT22;7429;52.498;13.480;2022-10-16T11:50:17;20.40;99.90
14682;DHT22;7429;52.498;13.480;2022-10-16T11:53:37;20.80;99.90
14682;DHT22;7429;52.498;13.480;2022-10-16T11:56:49;21.00;99.90
14682;DHT22;7429;52.498;13.480;2022-10-16T11:59:57;21.00;99.90
14682;DHT22;7429;52.498;13.480;2022-10-16T12:03:11;20.90;99.90
14682;DHT22;7429;52.498;13.480;2022-10-16T12:06:27;20.80;99.90
14682;DHT22;7429;52.498;13.480;2022-10-16T12:09:37;20.70;99.90
14682;DHT22;7429;52.498;13.480;2022-10-16T12:12:43;20.60;99.90
14682;DHT22;7429;52.498;13.480;2022-10-16T12:15:47;20.60;99.90
14682;DHT22;7429;52.498;13.480;2022-10-16T12:19:12;20.50;99.90
14682;DHT22;7429;52.498;13.480;2022-10-16T12:22:18;20.50;99.90
14682;DHT22;7429;52.498;13.480;2022-10-16T12:25:25;20.60;99.90
14682;DHT22;7429;52.498;13.480;2022-10-16T12:28:32;20.90;99.90
14682;DHT22;7429;52.498;13.480;2022-10-16T12:31:37;21.20;99.90
14682;DHT22;7429;52.498;13.480;2022-10-16T12:34:59;21.50;99.90
14682;DHT22;7429;52.498;13.480;2022-10-16T12:38:08;21.50;99.90
14682;DHT22;7429;52.498;13.480;2022-10-16T12:41:25;21.70;99.90
14682;DHT22;7429;52.498;13.480;2022-10-16T12:44:35;21.80;99.90
14682;DHT22;7429;52.498;13.480;2022-10-16T12:47:48;21.90;99.90
14682;DHT22;7429;52.498;13.480;2022-10-16T12:50:52;21.90;99.90
14682;DHT22;7429;52.498;13.480;2022-10-16T12:53:59;22.10;99.90
14682;DHT22;7429;52.498;13.480;2022-10-16T12:57:24;22.30;99.90
14682;DHT22;7429;52.498;13.480;2022-10-16T13:00:44;22.40;99.90
14682;DHT22;7429;52.498;13.480;2022-10-16T13:04:10;22.10;99.90
14682;DHT22;7429;52.498;13.480;2022-10-16T13:07:53;22.10;99.90
14682;DHT22;7429;52.498;13.480;2022-10-16T13:11:06;22.10;99.90
14682;DHT22;7429;52.498;13.480;2022-10-16T13:14:30;22.10;99.90
14682;DHT22;7429;52.498;13.480;2022-10-16T13:17:51;22.00;99.90
14682;DHT22;7429;52.498;13.480;2022-10-16T13:21:05;22.00;99.90
14682;DHT22;7429;52.498;13.480;2022-10-16T13:24:24;22.10;99.90
14682;DHT22;7429;52.498;13.480;2022-10-16T13:27:40;22.30;99.90
14682;DHT22;7429;52.498;13.480;2022-10-16T13:30:52;22.40;99.90
14682;DHT22;7429;52.498;13.480;2022-10-16T13:33:59;22.60;99.90
14682;DHT22;7429;52.498;13.480;2022-10-16T13:37:15;22.80;99.90
14682;DHT22;7429;52.498;13.480;2022-10-16T13:40:22;22.40;99.90
14682;DHT22;7429;52.498;13.480;2022-10-16T13:43:28;22.10;99.90
14682;DHT22;7429;52.498;13.480;2022-10-16T13:46:34;21.80;99.90
14682;DHT22;7429;52.498;13.480;2022-10-16T13:49:38;21.70;99.90
14682;DHT22;7429;52.498;13.480;2022-10-16T13:52:41;21.90;99.90
14682;DHT22;7429;52.498;13.480;2022-10-16T13:55:45;22.00;99.90
14682;DHT22;7429;52.498;13.480;2022-10-16T13:58:58;22.00;99.90
14682;DHT22;7429;52.498;13.480;2022-10-16T14:02:15;22.20;99.90
14682;DHT22;7429;52.498;13.480;2022-10-16T14:05:23;22.20;99.90
14682;DHT22;7429;52.498;13.480;2022-10-16T14:08:27;22.00;99.90
14682;DHT22;7429;52.498;13.480;2022-10-16T14:11:31;21.80;99.90
14682;DHT22;7429;52.498;13.480;2022-10-16T14:14:41;21.80;99.90
14682;DHT22;7429;52.498;13.480;2022-10-16T14:17:48;21.80;99.90
14682;DHT22;7429;52.498;13.480;2022-10-16T14:20:54;21.70;99.90
14682;DHT22;7429;52.498;13.480;2022-10-16T14:24:11;21.70;99.90
14682;DHT22;7429;52.498;13.480;2022-10-16T14:27:26;21.70;99.90
14682;DHT22;7429;52.498;13.480;2022-10-16T14:30:34;21.70;99.90
14682;DHT22;7429;52.498;13.480;2022-10-16T14:33:38;21.80;99.90
14682;DHT22;7429;52.498;13.480;2022-10-16T14:36:42;21.80;99.90
14682;DHT22;7429;52.498;13.480;2022-10-16T14:39:49;21.80;99.90
14682;DHT22;7429;52.498;13.480;2022-10-16T14:42:53;21.60;99.90
14682;DHT22;7429;52.498;13.480;2022-10-16T14:45:57;21.40;99.90
14682;DHT22;7429;52.498;13.480;2022-10-16T14:49:03;21.30;99.90
14682;DHT22;7429;52.498;13.480;2022-10-16T14:52:11;21.20;99.90
14682;DHT22;7429;52.498;13.480;2022-10-16T14:55:15;21.20;99.90
14682;DHT22;7429;52.498;13.480;2022-10-16T14:58:22;21.10;99.90
14682;DHT22;7429;52.498;13.480;2022-10-16T15:01:26;20.90;99.90
14682;DHT22;7429;52.498;13.480;2022-10-16T15:04:29;20.80;99.90
14682;DHT22;7429;52.498;13.480;2022-10-16T15:07:34;20.70;99.90
14682;DHT22;7429;52.498;13.480;2022-10-16T15:10:40;20.80;99.90
14682;DHT22;7429;52.498;13.480;2022-10-16T15:13:44;20.70;99.90
14682;DHT22;7429;52.498;13.480;2022-10-16T15:16:47;20.60;99.90
14682;DHT22;7429;52.498;13.480;2022-10-16T15:19:50;20.50;99.90
14682;DHT22;7429;52.498;13.480;2022-10-16T15:22:54;20.30;99.90
14682;DHT22;7429;52.498;13.480;2022-10-16T15:25:57;20.20;99.90
14682;DHT22;7429;52.498;13.480;2022-10-16T15:29:01;20.10;99.90
14682;DHT22;7429;52.498;13.480;2022-10-16T15:32:04;20.00;99.90
14682;DHT22;7429;52.498;13.480;2022-10-16T15:35:10;19.90;99.90
14682;DHT22;7429;52.498;13.480;2022-10-16T15:38:16;19.80;99.90
14682;DHT22;7429;52.498;13.480;2022-10-16T15:41:20;19.80;99.90
14682;DHT22;7429;52.498;13.480;2022-10-16T15:44:23;19.70;99.90
14682;DHT22;7429;52.498;13.480;2022-10-16T15:47:31;19.60;99.90
14682;DHT22;7429;52.498;13.480;2022-10-16T15:50:36;19.40;99.90
14682;DHT22;7429;52.498;13.480;2022-10-16T15:53:42;19.20;99.90
14682;DHT22;7429;52.498;13.480;2022-10-16T15:56:45;19.20;99.90
14682;DHT22;7429;52.498;13.480;2022-10-16T15:59:48;19.10;99.90
14682;DHT22;7429;52.498;13.480;2022-10-16T16:02:52;19.00;99.90
14682;DHT22;7429;52.498;13.480;2022-10-16T16:05:56;19.00;99.90
14682;DHT22;7429;52.498;13.480;2022-10-16T16:09:01;18.90;99.90
14682;DHT22;7429;52.498;13.480;2022-10-16T16:12:09;18.70;99.90
14682;DHT22;7429;52.498;13.480;2022-10-16T16:15:12;18.60;99.90
14682;DHT22;7429;52.498;13.480;2022-10-16T16:18:15;18.40;99.90
14682;DHT22;7429;52.498;13.480;2022-10-16T16:21:18;18.10;99.90
14682;DHT22;7429;52.498;13.480;2022-10-16T16:24:23;17.90;99.90
14682;DHT22;7429;52.498;13.480;2022-10-16T16:27:26;17.70;99.90
14682;DHT22;7429;52.498;13.480;2022-10-16T16:30:32;17.60;99.90
14682;DHT22;7429;52.498;13.480;2022-10-16T16:33:36;17.40;99.90
14682;DHT22;7429;52.498;13.480;2022-10-16T16:36:39;17.10;99.90
14682;DHT22;7429;52.498;13.480;2022-10-16T16:39:44;17.00;99.90
14682;DHT22;7429;52.498;13.480;2022-10-16T16:42:47;16.80;99.90
14682;DHT22;7429;52.498;13.480;2022-10-16T16:45:51;16.70;99.90
14682;DHT22;7429;52.498;13.480;2022-10-16T16:48:54;16.50;99.90
14682;DHT22;7429;52.498;13.480;2022-10-16T16:51:57;16.40;99.90
14682;DHT22;7429;52.498;13.480;2022-10-16T16:55:01;16.30;99.90
14682;DHT22;7429;52.498;13.480;2022-10-16T16:58:04;16.10;99.90
14682;DHT22;7429;52.498;13.480;2022-10-16T17:01:09;16.00;99.90
14682;DHT22;7429;52.498;13.480;2022-10-16T17:04:22;15.90;99.90
14682;DHT22;7429;52.498;13.480;2022-10-16T17:07:25;15.80;99.90
14682;DHT22;7429;52.498;13.480;2022-10-16T17:10:30;15.70;99.90
14682;DHT22;7429;52.498;13.480;2022-10-16T17:13:34;15.60;99.90
14682;DHT22;7429;52.498;13.480;2022-10-16T17:16:39;15.50;99.90
14682;DHT22;7429;52.498;13.480;2022-10-16T17:19:45;15.40;99.90
14682;DHT22;7429;52.498;13.480;2022-10-16T17:22:48;15.30;99.90
14682;DHT22;7429;52.498;13.480;2022-10-16T17:25:52;15.20;99.90
14682;DHT22;7429;52.498;13.480;2022-10-16T17:28:57;15.10;99.90
14682;DHT22;7429;52.498;13.480;2022-10-16T17:32:03;15.00;99.90
14682;DHT22;7429;52.498;13.480;2022-10-16T17:35:07;14.90;99.90
14682;DHT22;7429;52.498;13.480;2022-10-16T17:38:12;14.80;99.90
14682;DHT22;7429;52.498;13.480;2022-10-16T17:41:20;14.70;99.90
14682;DHT22;7429;52.498;13.480;2022-10-16T17:44:23;14.70;99.90
14682;DHT22;7429;52.498;13.480;2022-10-16T17:47:26;14.60;99.90
14682;DHT22;7429;52.498;13.480;2022-10-16T17:50:29;14.60;99.90
14682;DHT22;7429;52.498;13.480;2022-10-16T17:53:33;14.50;99.90
14682;DHT22;7429;52.498;13.480;2022-10-16T17:56:37;14.40;99.90
14682;DHT22;7429;52.498;13.480;2022-10-16T17:59:40;14.40;99.90
14682;DHT22;7429;52.498;13.480;2022-10-16T18:02:43;14.30;99.90
14682;DHT22;7429;52.498;13.480;2022-10-16T18:05:46;14.20;99.90
14682;DHT22;7429;52.498;13.480;2022-10-16T18:08:50;14.10;99.90
14682;DHT22;7429;52.498;13.480;2022-10-16T18:11:55;14.00;99.90
14682;DHT22;7429;52.498;13.480;2022-10-16T18:15:01;13.90;99.90
14682;DHT22;7429;52.498;13.480;2022-10-16T18:18:05;13.90;99.90
14682;DHT22;7429;52.498;13.480;2022-10-16T18:21:10;13.80;99.90
14682;DHT22;7429;52.498;13.480;2022-10-16T18:24:15;13.80;99.90
14682;DHT22;7429;52.498;13.480;2022-10-16T18:27:20;13.80;99.90
14682;DHT22;7429;52.498;13.480;2022-10-16T18:30:23;13.80;99.90
14682;DHT22;7429;52.498;13.480;2022-10-16T18:33:26;13.80;99.90
14682;DHT22;7429;52.498;13.480;2022-10-16T18:36:33;13.80;99.90
14682;DHT22;7429;52.498;13.480;2022-10-16T18:39:36;13.70;99.90
14682;DHT22;7429;52.498;13.480;2022-10-16T18:42:41;13.70;99.90
14682;DHT22;7429;52.498;13.480;2022-10-16T18:45:54;13.70;99.90
14682;DHT22;7429;52.498;13.480;2022-10-16T18:48:57;13.60;99.90
14682;DHT22;7429;52.498;13.480;2022-10-16T18:52:02;13.60;99.90
14682;DHT22;7429;52.498;13.480;2022-10-16T18:55:07;13.50;99.90
14682;DHT22;7429;52.498;13.480;2022-10-16T18:58:12;13.50;99.90
14682;DHT22;7429;52.498;13.480;2022-10-16T19:01:17;13.50;99.90
14682;DHT22;7429;52.498;13.480;2022-10-16T19:04:22;13.40;99.90
14682;DHT22;7429;52.498;13.480;2022-10-16T19:07:25;13.40;99.90
14682;DHT22;7429;52.498;13.480;2022-10-16T19:10:29;13.30;99.90
14682;DHT22;7429;52.498;13.480;2022-10-16T19:13:34;13.30;99.90
14682;DHT22;7429;52.498;13.480;2022-10-16T19:16:38;13.20;99.90
14682;DHT22;7429;52.498;13.480;2022-10-16T19:19:43;13.20;99.90
14682;DHT22;7429;52.498;13.480;2022-10-16T19:22:46;13.20;99.90
14682;DHT22;7429;52.498;13.480;2022-10-16T19:26:01;13.10;99.90
14682;DHT22;7429;52.498;13.480;2022-10-16T19:29:06;13.10;99.90
14682;DHT22;7429;52.498;13.480;2022-10-16T19:32:12;13.10;99.90
14682;DHT22;7429;52.498;13.480;2022-10-16T19:35:15;13.10;99.90
14682;DHT22;7429;52.498;13.480;2022-10-16T19:38:18;13.00;99.90
14682;DHT22;7429;52.498;13.480;2022-10-16T19:41:22;13.00;99.90
14682;DHT22;7429;52.498;13.480;2022-10-16T19:44:27;13.00;99.90
14682;DHT22;7429;52.498;13.480;2022-10-16T19:47:30;13.00;99.90